Wahpeton, Iowa
Current Conditions -  °F | °C
As of 6:13 PM on Wednesday 26 Nov 2014 (Local Time) from KMJQ Reporting Station
Overcast Overcast  
Wind Chill: -3°   Ceiling: 800
Heat Index: 14°   Visibility: 10mi
Dew Point: 10°   Wind: 18mph
Humidity: 86%   Direction: 320°NW
Pressure: 30.31"   Gusts: 22mph
Location:  43.4265°N, 95.1547°W
Report Text: KMJQ 270013Z AUTO 32016G19KT 10SM OVC008 M10/M12 A3031 RMK AO2
Loading
Personal Weather Stations






























Interactive Weather Map New forecast layout! Learn more

10-Day Weather Forecast

Advertisements
Track Severe Weather on mobile